sim
Sign-in with your pilot id or email,
or register
Callsign
Passwort

Schedule Details

Flight Number: DLH1989
Departure: Cologne Bonn Airport (EDDK) at 15:25
Arrival: Munich Airport (EDDM) at 16:30
Route: Lufthansa Passenger Schedule. Enter filed route here before submitting Pirep.

Weather Information
Getting current METAR information for EDDK 201920Z 06008KT CAVOK 19/07 Q1016 NOSIG
Getting current METAR information for EDDM 201920Z 35001KT CAVOK 13/11 Q1016 NOSIG

Schedule Frequency

Route Map